createdAt,value
2023-05-21T00:01:36.060Z,101568.69
2023-05-21T00:04:03.475Z,101566.63
2023-05-21T00:06:30.361Z,101556.75
2023-05-21T00:08:57.112Z,101566.47
2023-05-21T00:11:24.127Z,101568.34
2023-05-21T00:13:50.655Z,101560.50
2023-05-21T00:16:17.159Z,101553.84
2023-05-21T00:18:45.014Z,101556.91
2023-05-21T00:21:12.312Z,101554.69
2023-05-21T00:23:39.785Z,101548.75
2023-05-21T00:26:06.493Z,101549.09
2023-05-21T00:28:33.007Z,101549.97
2023-05-21T00:30:59.473Z,101551.31
2023-05-21T00:33:29.310Z,101544.19
2023-05-21T00:35:56.860Z,101539.22
2023-05-21T00:38:23.905Z,101530.91
2023-05-21T00:40:50.777Z,101528.69
2023-05-21T00:43:17.262Z,101525.31
2023-05-21T00:45:47.471Z,101529.75
2023-05-21T00:48:14.885Z,101529.25
2023-05-21T00:50:41.918Z,101522.25
2023-05-21T00:53:10.052Z,101526.16
2023-05-21T00:55:38.077Z,101524.66
2023-05-21T00:58:05.186Z,101522.09
2023-05-21T01:00:35.823Z,101522.94
2023-05-21T01:03:02.434Z,101523.13
2023-05-21T01:05:29.250Z,101521.41
2023-05-21T01:07:58.120Z,101522.78
2023-05-21T01:10:26.148Z,101527.72
2023-05-21T01:12:55.189Z,101530.25
2023-05-21T01:15:21.885Z,101521.72
2023-05-21T01:17:48.912Z,101517.50
2023-05-21T01:20:19.868Z,101516.13
2023-05-21T01:22:51.981Z,101514.28
2023-05-21T01:25:18.844Z,101510.19
2023-05-21T01:27:45.564Z,101510.03
2023-05-21T01:30:13.275Z,101505.41
2023-05-21T01:32:52.408Z,101507.16
2023-05-21T01:35:34.164Z,101502.38
2023-05-21T01:38:28.198Z,101509.53
2023-05-21T01:41:03.560Z,101502.91
2023-05-21T01:43:34.018Z,101498.66
2023-05-21T01:46:01.817Z,101496.13
2023-05-21T01:48:30.128Z,101506.31
2023-05-21T01:51:02.376Z,101494.78
2023-05-21T01:53:28.913Z,101499.38
2023-05-21T01:55:55.878Z,101501.94
2023-05-21T01:58:22.988Z,101501.75
2023-05-21T02:00:51.171Z,101498.38
2023-05-21T02:03:19.396Z,101492.25
2023-05-21T02:05:47.032Z,101501.94
2023-05-21T02:08:15.082Z,101504.47
2023-05-21T02:10:41.664Z,101494.13
2023-05-21T02:13:08.205Z,101496.16
2023-05-21T02:15:35.123Z,101493.97
2023-05-21T02:18:02.404Z,101486.66
2023-05-21T02:20:29.008Z,101492.59
2023-05-21T02:22:55.688Z,101493.75
2023-05-21T02:25:22.370Z,101493.75
2023-05-21T02:27:52.859Z,101491.75
2023-05-21T02:30:20.066Z,101493.13
2023-05-21T02:32:48.690Z,101504.00
2023-05-21T02:35:15.856Z,101497.03
2023-05-21T02:37:44.050Z,101494.13
2023-05-21T02:40:11.579Z,101495.13
2023-05-21T02:42:40.260Z,101490.53
2023-05-21T02:45:11.597Z,101481.19
2023-05-21T02:47:38.932Z,101483.09
2023-05-21T02:50:08.825Z,101488.88
2023-05-21T02:52:35.653Z,101494.81
2023-05-21T02:55:02.323Z,101488.53
2023-05-21T02:57:28.878Z,101491.94
2023-05-21T02:59:55.582Z,101491.41
2023-05-21T03:02:23.803Z,101488.88
2023-05-21T03:04:51.583Z,101488.34
2023-05-21T03:07:19.146Z,101487.50
2023-05-21T03:09:46.415Z,101488.03
2023-05-21T03:12:13.343Z,101484.59
2023-05-21T03:14:39.812Z,101470.72
2023-05-21T03:17:06.525Z,101476.16
2023-05-21T03:19:36.729Z,101474.94
2023-05-21T03:22:04.702Z,101474.94
2023-05-21T03:24:33.173Z,101478.31
2023-05-21T03:27:01.472Z,101480.53
2023-05-21T03:29:28.844Z,101471.34
2023-05-21T03:31:55.814Z,101477.31
2023-05-21T03:34:22.461Z,101472.03
2023-05-21T03:36:49.183Z,101470.34
2023-05-21T03:39:15.861Z,101475.97
2023-05-21T03:41:42.435Z,101471.88
2023-05-21T03:44:09.097Z,101467.78
2023-05-21T03:46:35.903Z,101471.19
2023-05-21T03:49:02.710Z,101468.31
2023-05-21T03:51:30.876Z,101464.72
2023-05-21T03:53:59.121Z,101468.78
2023-05-21T03:56:26.267Z,101466.94
2023-05-21T03:58:53.195Z,101464.41
2023-05-21T04:01:20.007Z,101462.53
2023-05-21T04:03:46.981Z,101467.97
2023-05-21T04:06:13.849Z,101461.50
2023-05-21T04:08:40.343Z,101466.44
2023-05-21T04:11:07.064Z,101464.56
2023-05-21T04:13:33.520Z,101473.06
2023-05-21T04:16:00.109Z,101475.63
2023-05-21T04:18:26.856Z,101471.53
2023-05-21T04:20:53.844Z,101470.00
2023-05-21T04:23:23.734Z,101475.75
2023-05-21T04:25:50.921Z,101473.38
2023-05-21T04:28:21.138Z,101481.38
2023-05-21T04:30:48.100Z,101477.28
2023-05-21T04:33:18.255Z,101479.84
2023-05-21T04:35:47.347Z,101478.13
2023-05-21T04:38:14.228Z,101472.16
2023-05-21T04:40:40.876Z,101474.22
2023-05-21T04:43:08.259Z,101483.75
2023-05-21T04:45:35.217Z,101480.31
2023-05-21T04:48:02.946Z,101475.72
2023-05-21T04:50:30.971Z,101470.63
2023-05-21T04:52:58.921Z,101473.34
2023-05-21T04:55:25.997Z,101476.78
2023-05-21T04:57:53.014Z,101475.56
2023-05-21T05:00:20.188Z,101469.59
2023-05-21T05:02:46.861Z,101468.91
2023-05-21T05:05:13.460Z,101471.63
2023-05-21T05:07:40.194Z,101479.91
2023-05-21T05:10:07.268Z,101479.56
2023-05-21T05:12:33.762Z,101481.22
2023-05-21T05:15:00.273Z,101482.47
2023-05-21T05:17:26.755Z,101477.41
2023-05-21T05:19:53.319Z,101485.66
2023-05-21T05:22:19.795Z,101484.06
2023-05-21T05:24:46.317Z,101485.28
2023-05-21T05:27:12.860Z,101487.69
2023-05-21T05:29:39.344Z,101483.56
2023-05-21T05:32:06.370Z,101479.66
2023-05-21T05:34:32.889Z,101472.84
2023-05-21T05:36:59.455Z,101475.56
2023-05-21T05:39:26.055Z,101475.75
2023-05-21T05:41:52.639Z,101477.44
2023-05-21T05:44:19.229Z,101478.44
2023-05-21T05:46:45.879Z,101485.66
2023-05-21T05:49:13.665Z,101472.94
2023-05-21T05:51:40.917Z,101478.00
2023-05-21T05:54:07.451Z,101472.53
2023-05-21T05:56:34.204Z,101469.63
2023-05-21T05:59:00.756Z,101465.47
2023-05-21T06:01:28.117Z,101462.91
2023-05-21T06:03:54.763Z,101467.69
2023-05-21T06:06:21.337Z,101463.75
2023-05-21T06:08:47.915Z,101456.09
2023-05-21T06:11:17.186Z,101465.13
2023-05-21T06:13:43.729Z,101467.69
2023-05-21T06:16:10.346Z,101463.56
2023-05-21T06:18:37.548Z,101465.88
2023-05-21T06:21:04.116Z,101464.56
2023-05-21T06:23:32.672Z,101468.59
2023-05-21T06:25:59.304Z,101456.13
2023-05-21T06:28:25.863Z,101464.00
2023-05-21T06:30:52.502Z,101461.81
2023-05-21T06:33:19.124Z,101459.88
2023-05-21T06:35:45.798Z,101459.81
2023-05-21T06:38:12.432Z,101460.78
2023-05-21T06:40:38.913Z,101454.44
2023-05-21T06:43:05.548Z,101454.88
2023-05-21T06:45:32.162Z,101451.47
2023-05-21T06:47:58.710Z,101456.13
2023-05-21T06:50:25.509Z,101449.56
2023-05-21T06:52:51.980Z,101447.03
2023-05-21T06:55:18.660Z,101432.53
2023-05-21T06:57:45.173Z,101442.91
2023-05-21T07:00:12.345Z,101436.69
2023-05-21T07:02:38.961Z,101444.13
2023-05-21T07:05:05.950Z,101434.66
2023-05-21T07:07:34.901Z,101435.31
2023-05-21T07:10:01.394Z,101450.00
2023-05-21T07:12:27.852Z,101447.56
2023-05-21T07:14:54.543Z,101442.34
2023-05-21T07:17:21.051Z,101438.38
2023-05-21T07:19:47.661Z,101439.13
2023-05-21T07:22:14.538Z,101433.50
2023-05-21T07:24:41.266Z,101437.16
2023-05-21T07:27:17.792Z,101436.22
2023-05-21T07:29:51.058Z,101434.72
2023-05-21T07:32:17.693Z,101440.59
2023-05-21T07:34:44.189Z,101442.06
2023-05-21T07:37:10.862Z,101437.50
2023-05-21T07:39:37.851Z,101439.22
2023-05-21T07:42:07.094Z,101436.81
2023-05-21T07:44:33.601Z,101434.53
2023-05-21T07:47:00.097Z,101435.28
2023-05-21T07:49:26.626Z,101432.19
2023-05-21T07:51:53.077Z,101432.63
2023-05-21T07:54:19.812Z,101424.47
2023-05-21T07:56:46.576Z,101429.22
2023-05-21T07:59:14.614Z,101417.69
2023-05-21T08:01:42.105Z,101423.03
2023-05-21T08:04:08.850Z,101424.72
2023-05-21T08:06:37.470Z,101409.78
2023-05-21T08:09:06.151Z,101414.59
2023-05-21T08:11:33.094Z,101413.97
2023-05-21T08:13:59.950Z,101413.91
2023-05-21T08:16:26.992Z,101410.94
2023-05-21T08:18:53.668Z,101405.34
2023-05-21T08:21:20.827Z,101419.88
2023-05-21T08:23:47.535Z,101407.56
2023-05-21T08:26:16.489Z,101415.97
2023-05-21T08:28:43.434Z,101410.53
2023-05-21T08:31:10.009Z,101403.97
2023-05-21T08:33:38.373Z,101407.47
2023-05-21T08:36:08.416Z,101403.78
2023-05-21T08:38:35.019Z,101414.91
2023-05-21T08:41:01.672Z,101407.09
2023-05-21T08:43:28.764Z,101404.28
2023-05-21T08:45:58.812Z,101414.84
2023-05-21T08:48:25.495Z,101408.44
2023-05-21T08:50:52.959Z,101418.44
2023-05-21T08:53:27.457Z,101408.94
2023-05-21T08:55:56.238Z,101411.75
2023-05-21T08:58:23.003Z,101404.03
2023-05-21T09:00:50.016Z,101410.34
2023-05-21T09:03:16.736Z,101408.75
2023-05-21T09:05:45.186Z,101416.22
2023-05-21T09:08:19.405Z,101405.88
2023-05-21T09:10:50.902Z,101400.38
2023-05-21T09:13:18.478Z,101394.81
2023-05-21T09:15:46.022Z,101391.22
2023-05-21T09:18:13.603Z,101388.19
2023-05-21T09:20:40.824Z,101385.44
2023-05-21T09:23:12.553Z,101386.03
2023-05-21T09:25:39.716Z,101390.34
2023-05-21T09:28:12.286Z,101389.44
2023-05-21T09:30:46.795Z,101383.81
2023-05-21T09:33:24.473Z,101378.47
2023-05-21T09:35:51.006Z,101370.75
2023-05-21T09:38:17.787Z,101372.53
2023-05-21T09:40:47.917Z,101367.81
2023-05-21T09:43:18.556Z,101371.22
2023-05-21T09:45:53.350Z,101367.47
2023-05-21T09:48:38.390Z,101357.59
2023-05-21T09:51:16.617Z,101352.94
2023-05-21T09:53:53.402Z,101352.72
2023-05-21T09:56:25.765Z,101355.81
2023-05-21T09:58:56.938Z,101353.31
2023-05-21T10:01:24.125Z,101350.63
2023-05-21T10:03:56.013Z,101358.22
2023-05-21T10:06:26.425Z,101359.13
2023-05-21T10:08:56.740Z,101356.09
2023-05-21T10:11:27.133Z,101352.63
2023-05-21T10:14:06.727Z,101352.75
2023-05-21T10:16:34.643Z,101354.44
2023-05-21T10:19:01.970Z,101343.41
2023-05-21T10:21:28.674Z,101351.94
2023-05-21T10:23:58.738Z,101337.69
2023-05-21T10:26:26.399Z,101326.66
2023-05-21T10:28:56.156Z,101328.16
2023-05-21T10:31:23.340Z,101327.03
2023-05-21T10:33:51.142Z,101332.75
2023-05-21T10:36:18.741Z,101329.91
2023-05-21T10:38:46.460Z,101333.84
2023-05-21T10:41:17.263Z,101338.41
2023-05-21T10:43:52.934Z,101328.16
2023-05-21T10:46:22.290Z,101324.84
2023-05-21T10:48:57.705Z,101325.63
2023-05-21T10:51:29.154Z,101323.66
2023-05-21T10:54:11.015Z,101316.91
2023-05-21T10:57:06.196Z,101329.72
2023-05-21T10:59:48.546Z,101331.31
2023-05-21T11:02:16.711Z,101321.97
2023-05-21T11:04:49.072Z,101324.69
2023-05-21T11:07:23.901Z,101320.88
2023-05-21T11:09:50.971Z,101318.72
2023-05-21T11:12:18.105Z,101320.44
2023-05-21T11:14:58.021Z,101311.88
2023-05-21T11:17:40.006Z,101318.38
2023-05-21T11:20:16.749Z,101308.09
2023-05-21T11:22:46.608Z,101309.56
2023-05-21T11:25:13.559Z,101307.75
2023-05-21T11:27:42.222Z,101306.44
2023-05-21T11:30:10.711Z,101302.25
2023-05-21T11:33:01.527Z,101301.56
2023-05-21T11:35:28.126Z,101301.13
2023-05-21T11:37:54.788Z,101285.28
2023-05-21T11:40:30.208Z,101284.66
2023-05-21T11:42:57.280Z,101290.31
2023-05-21T11:45:29.000Z,101282.34
2023-05-21T11:47:56.221Z,101287.19
2023-05-21T11:50:23.163Z,101285.31
2023-05-21T11:52:50.934Z,101279.00
2023-05-21T11:55:21.922Z,101284.06
2023-05-21T11:57:52.246Z,101272.50
2023-05-21T12:00:18.711Z,101272.88
2023-05-21T12:02:48.443Z,101273.19
2023-05-21T12:05:15.287Z,101261.84
2023-05-21T12:07:42.467Z,101274.97
2023-05-21T12:10:09.482Z,101261.88
2023-05-21T12:12:46.079Z,101262.44
2023-05-21T12:15:20.586Z,101264.38
2023-05-21T12:17:51.143Z,101252.47
2023-05-21T12:20:17.873Z,101259.81
2023-05-21T12:22:44.779Z,101253.22
2023-05-21T12:25:12.169Z,101245.28
2023-05-21T12:27:39.365Z,101246.09
2023-05-21T12:30:06.731Z,101241.88
2023-05-21T12:32:33.285Z,101242.91
2023-05-21T12:34:59.936Z,101241.81
2023-05-21T12:37:32.597Z,101232.38
2023-05-21T12:40:01.250Z,101236.25
2023-05-21T12:42:35.062Z,101234.88
2023-05-21T12:45:09.349Z,101239.19
2023-05-21T12:47:36.534Z,101237.91
2023-05-21T12:50:08.068Z,101231.09
2023-05-21T12:52:34.737Z,101227.84
2023-05-21T12:55:01.380Z,101228.06
2023-05-21T12:57:35.562Z,101224.50
2023-05-21T13:00:03.766Z,101231.88
2023-05-21T13:02:40.249Z,101224.00
2023-05-21T13:05:09.075Z,101231.84
2023-05-21T13:07:38.080Z,101230.03
2023-05-21T13:10:06.232Z,101239.47
2023-05-21T13:12:33.966Z,101238.66
2023-05-21T13:15:02.327Z,101233.38
2023-05-21T13:17:30.670Z,101229.03
2023-05-21T13:20:09.525Z,101229.88
2023-05-21T13:22:43.650Z,101227.59
2023-05-21T13:25:11.790Z,101226.97
2023-05-21T13:27:41.880Z,101225.50
2023-05-21T13:30:09.470Z,101221.13
2023-05-21T13:32:36.631Z,101226.22
2023-05-21T13:35:03.504Z,101222.53
2023-05-21T13:37:30.726Z,101217.97
2023-05-21T13:39:57.462Z,101217.50
2023-05-21T13:42:24.293Z,101212.25
2023-05-21T13:44:50.788Z,101210.84
2023-05-21T13:47:17.420Z,101214.22
2023-05-21T13:49:43.908Z,101213.31
2023-05-21T13:52:10.668Z,101209.22
2023-05-21T13:54:37.422Z,101215.28
2023-05-21T13:57:04.498Z,101216.00
2023-05-21T13:59:33.444Z,101215.22
2023-05-21T14:02:01.062Z,101214.25
2023-05-21T14:04:27.668Z,101214.56
2023-05-21T14:06:54.471Z,101221.88
2023-05-21T14:09:21.432Z,101221.94
2023-05-21T14:11:47.920Z,101222.72
2023-05-21T14:14:18.901Z,101224.69
2023-05-21T14:16:47.314Z,101219.09
2023-05-21T14:19:14.373Z,101224.63
2023-05-21T14:21:41.083Z,101217.63
2023-05-21T14:24:07.758Z,101220.28
2023-05-21T14:26:36.672Z,101214.53
2023-05-21T14:29:03.219Z,101215.50
2023-05-21T14:31:29.868Z,101220.00
2023-05-21T14:33:56.391Z,101214.06
2023-05-21T14:36:22.906Z,101214.41
2023-05-21T14:38:49.528Z,101200.97
2023-05-21T14:41:16.034Z,101211.63
2023-05-21T14:43:42.518Z,101201.59
2023-05-21T14:46:09.004Z,101198.13
2023-05-21T14:48:35.596Z,101195.22
2023-05-21T14:51:02.126Z,101194.88
2023-05-21T14:53:28.661Z,101198.78
2023-05-21T14:55:55.456Z,101192.53
2023-05-21T14:58:21.940Z,101194.59
2023-05-21T15:00:48.521Z,101192.25
2023-05-21T15:03:15.049Z,101185.72
2023-05-21T15:05:41.667Z,101188.91
2023-05-21T15:08:09.609Z,101183.44
2023-05-21T15:10:36.323Z,101181.63
2023-05-21T15:13:04.023Z,101173.31
2023-05-21T15:15:30.522Z,101167.47
2023-05-21T15:17:57.827Z,101176.66
2023-05-21T15:20:24.561Z,101164.25
2023-05-21T15:22:53.504Z,101166.34
2023-05-21T15:25:24.167Z,101165.00
2023-05-21T15:27:50.806Z,101161.50
2023-05-21T15:30:17.441Z,101161.44
2023-05-21T15:32:44.097Z,101161.69
2023-05-21T15:35:10.789Z,101152.47
2023-05-21T15:37:37.347Z,101158.03
2023-05-21T15:40:04.608Z,101160.03
2023-05-21T15:42:31.782Z,101155.19
2023-05-21T15:44:58.694Z,101163.13
2023-05-21T15:47:25.419Z,101165.66
2023-05-21T15:49:51.953Z,101160.69
2023-05-21T15:52:19.863Z,101158.22
2023-05-21T15:54:46.921Z,101155.28
2023-05-21T15:57:13.534Z,101150.78
2023-05-21T15:59:40.176Z,101154.09
2023-05-21T16:02:07.794Z,101149.91
2023-05-21T16:04:34.523Z,101148.69
2023-05-21T16:07:01.007Z,101152.13
2023-05-21T16:09:27.550Z,101143.91
2023-05-21T16:11:54.000Z,101154.66
2023-05-21T16:14:20.573Z,101153.94
2023-05-21T16:16:47.139Z,101161.56
2023-05-21T16:19:14.020Z,101165.78
2023-05-21T16:21:41.521Z,101162.41
2023-05-21T16:24:08.023Z,101161.44
2023-05-21T16:26:34.517Z,101164.94
2023-05-21T16:29:02.271Z,101161.81
2023-05-21T16:31:29.084Z,101165.41
2023-05-21T16:33:55.885Z,101162.66
2023-05-21T16:36:22.438Z,101164.19
2023-05-21T16:38:48.917Z,101166.28
2023-05-21T16:41:15.659Z,101160.63
2023-05-21T16:43:42.196Z,101168.47
2023-05-21T16:46:08.739Z,101165.81
2023-05-21T16:48:37.348Z,101164.16
2023-05-21T16:51:04.568Z,101166.88
2023-05-21T16:53:31.154Z,101165.44
2023-05-21T16:55:57.683Z,101166.28
2023-05-21T16:58:24.530Z,101163.06
2023-05-21T17:00:51.030Z,101160.31
2023-05-21T17:03:17.911Z,101169.19
2023-05-21T17:05:44.399Z,101166.31
2023-05-21T17:08:11.034Z,101168.22
2023-05-21T17:10:38.026Z,101162.25
2023-05-21T17:13:17.776Z,101165.22
2023-05-21T17:15:47.804Z,101158.88
2023-05-21T17:18:14.391Z,101164.50
2023-05-21T17:20:41.088Z,101164.59
2023-05-21T17:23:07.708Z,101163.16
2023-05-21T17:25:34.693Z,101161.97
2023-05-21T17:28:01.702Z,101170.19
2023-05-21T17:30:28.172Z,101158.84
2023-05-21T17:32:55.009Z,101163.88
2023-05-21T17:35:21.523Z,101172.59
2023-05-21T17:37:48.128Z,101166.47
2023-05-21T17:40:14.696Z,101163.47
2023-05-21T17:42:41.225Z,101160.91
2023-05-21T17:45:08.090Z,101168.84
2023-05-21T17:47:34.707Z,101157.94
2023-05-21T17:50:01.329Z,101165.38
2023-05-21T17:52:27.918Z,101158.50
2023-05-21T17:54:54.848Z,101160.06
2023-05-21T17:57:21.372Z,101165.44
2023-05-21T17:59:48.037Z,101167.13
2023-05-21T18:02:14.567Z,101165.94
2023-05-21T18:04:41.045Z,101174.00
2023-05-21T18:07:07.518Z,101170.31
2023-05-21T18:09:34.497Z,101180.06
2023-05-21T18:12:02.665Z,101171.78
2023-05-21T18:14:29.103Z,101176.66
2023-05-21T18:16:56.012Z,101175.22
2023-05-21T18:19:22.689Z,101177.16
2023-05-21T18:21:49.557Z,101186.22
2023-05-21T18:24:16.027Z,101191.16
2023-05-21T18:26:43.456Z,101188.00
2023-05-21T18:29:11.264Z,101178.69
2023-05-21T18:31:37.776Z,101178.13
2023-05-21T18:34:04.327Z,101177.53
2023-05-21T18:36:38.334Z,101177.38
2023-05-21T18:39:06.328Z,101182.47
2023-05-21T18:41:33.438Z,101182.91
2023-05-21T18:44:01.733Z,101177.66
2023-05-21T18:46:31.662Z,101180.25
2023-05-21T18:48:59.899Z,101181.38
2023-05-21T18:51:26.524Z,101177.91
2023-05-21T18:53:53.269Z,101175.19
2023-05-21T18:56:19.950Z,101172.72
2023-05-21T18:58:47.664Z,101172.22
2023-05-21T19:01:14.393Z,101176.03
2023-05-21T19:03:41.041Z,101181.50
2023-05-21T19:06:08.488Z,101175.84
2023-05-21T19:08:35.076Z,101167.84
2023-05-21T19:11:01.678Z,101174.88
2023-05-21T19:13:28.212Z,101183.19
2023-05-21T19:15:54.967Z,101184.75
2023-05-21T19:18:21.569Z,101185.81
2023-05-21T19:20:48.121Z,101184.38
2023-05-21T19:23:15.188Z,101183.09
2023-05-21T19:25:41.770Z,101194.94
2023-05-21T19:28:08.292Z,101197.09
2023-05-21T19:30:36.413Z,101193.13
2023-05-21T19:33:03.506Z,101189.75
2023-05-21T19:35:30.455Z,101192.94
2023-05-21T19:38:00.180Z,101196.31
2023-05-21T19:40:27.246Z,101203.09
2023-05-21T19:42:53.674Z,101207.91
2023-05-21T19:45:21.492Z,101208.16
2023-05-21T19:47:48.383Z,101203.94
2023-05-21T19:50:15.032Z,101205.44
2023-05-21T19:52:41.513Z,101206.44
2023-05-21T19:55:10.289Z,101214.44
2023-05-21T19:57:37.219Z,101218.25
2023-05-21T20:00:05.466Z,101213.19
2023-05-21T20:02:32.270Z,101211.94
2023-05-21T20:04:59.190Z,101215.50
2023-05-21T20:07:25.889Z,101216.78
2023-05-21T20:09:52.468Z,101222.88
2023-05-21T20:12:19.287Z,101215.94
2023-05-21T20:14:47.517Z,101223.69
2023-05-21T20:17:14.772Z,101216.75
2023-05-21T20:19:41.384Z,101220.13
2023-05-21T20:22:08.303Z,101220.09
2023-05-21T20:24:34.821Z,101222.41
2023-05-21T20:27:01.774Z,101226.19
2023-05-21T20:29:28.884Z,101230.78
2023-05-21T20:31:55.699Z,101225.94
2023-05-21T20:34:22.263Z,101230.78
2023-05-21T20:36:48.788Z,101225.53
2023-05-21T20:39:15.601Z,101222.38
2023-05-21T20:41:44.667Z,101218.94
2023-05-21T20:44:12.048Z,101213.44
2023-05-21T20:46:39.001Z,101223.13
2023-05-21T20:49:05.907Z,101212.16
2023-05-21T20:51:32.948Z,101224.75
2023-05-21T20:53:59.600Z,101215.53
2023-05-21T20:56:40.889Z,101222.25
2023-05-21T20:59:10.441Z,101222.00
2023-05-21T21:01:37.945Z,101217.34
2023-05-21T21:04:05.186Z,101225.16
2023-05-21T21:06:32.288Z,101226.56
2023-05-21T21:08:58.853Z,101220.03
2023-05-21T21:11:27.012Z,101218.78
2023-05-21T21:13:53.571Z,101222.56
2023-05-21T21:16:20.307Z,101221.50
2023-05-21T21:18:47.156Z,101212.44
2023-05-21T21:21:14.067Z,101221.59
2023-05-21T21:23:40.726Z,101220.31
2023-05-21T21:26:07.280Z,101211.91
2023-05-21T21:28:33.992Z,101218.22
2023-05-21T21:31:00.770Z,101209.00
2023-05-21T21:33:28.442Z,101211.09
2023-05-21T21:35:55.465Z,101211.66
2023-05-21T21:38:22.245Z,101215.88
2023-05-21T21:40:48.900Z,101217.13
2023-05-21T21:43:15.442Z,101216.47
2023-05-21T21:45:41.998Z,101214.75
2023-05-21T21:48:08.678Z,101215.41
2023-05-21T21:50:35.435Z,101209.75
2023-05-21T21:53:03.632Z,101219.69
2023-05-21T21:55:30.371Z,101221.19
2023-05-21T21:57:56.977Z,101226.50
2023-05-21T22:00:26.755Z,101224.13
2023-05-21T22:02:53.917Z,101223.09
2023-05-21T22:05:20.887Z,101222.28
2023-05-21T22:07:47.704Z,101216.00
2023-05-21T22:10:15.954Z,101205.50
2023-05-21T22:12:42.985Z,101206.38
2023-05-21T22:15:17.935Z,101205.22
2023-05-21T22:17:44.860Z,101198.06
2023-05-21T22:20:11.491Z,101190.75
2023-05-21T22:22:38.039Z,101197.16
2023-05-21T22:25:05.134Z,101192.13
2023-05-21T22:27:31.634Z,101192.47
2023-05-21T22:29:58.211Z,101198.41
2023-05-21T22:32:24.714Z,101192.72
2023-05-21T22:34:51.178Z,101206.63
2023-05-21T22:37:17.865Z,101207.69
2023-05-21T22:39:44.619Z,101206.13
2023-05-21T22:42:11.421Z,101209.50
2023-05-21T22:44:37.900Z,101211.56
2023-05-21T22:47:04.674Z,101291.25
2023-05-21T22:49:32.676Z,101294.84
2023-05-21T22:52:05.344Z,101257.78
2023-05-21T22:54:32.788Z,101299.50
2023-05-21T22:57:01.134Z,101269.22
2023-05-21T22:59:32.336Z,101250.44
2023-05-21T23:01:59.298Z,101246.94
2023-05-21T23:04:42.686Z,101256.06
2023-05-21T23:07:10.738Z,101253.53
2023-05-21T23:09:37.381Z,101247.00
2023-05-21T23:12:04.480Z,101247.00
2023-05-21T23:14:31.122Z,101251.25
2023-05-21T23:17:01.944Z,101243.66
2023-05-21T23:19:29.547Z,101254.00
2023-05-21T23:21:56.398Z,101247.56
2023-05-21T23:24:23.116Z,101247.34
2023-05-21T23:26:49.818Z,101239.59
2023-05-21T23:29:16.811Z,101241.09
2023-05-21T23:31:43.715Z,101237.44
2023-05-21T23:34:10.690Z,101240.25
2023-05-21T23:36:37.318Z,101236.41
2023-05-21T23:39:03.924Z,101215.66
2023-05-21T23:41:30.521Z,101212.88
2023-05-21T23:43:57.050Z,101212.06
2023-05-21T23:46:23.665Z,101223.72
2023-05-21T23:48:50.231Z,101214.94
2023-05-21T23:51:18.302Z,101218.44
2023-05-21T23:53:45.474Z,101205.47
2023-05-21T23:56:12.112Z,101206.41
2023-05-21T23:58:38.632Z,101195.72
